Time;durP1;ratioP1;P1;durP2;ratioP2;P2;SDS_P1;SDS_P2;PMS_P1;PMS_P2;Temp;Humidity;BMP_temperature;BMP_pressure;BME280_temperature;BME280_humidity;BME280_pressure;Samples;Min_cycle;Max_cycle;Signal;HPM_P1;HPM_P2
2022/03/18 00:01:40;;;;;;;;;15.50;14.75;;;;;9.23;59.16;102928.91;6277158;22;45857;-79
2022/03/18 00:04:05;;;;;;;;;19.75;14.50;;;;;9.16;59.25;102925.63;6277962;22;45550;-77
2022/03/18 00:06:31;;;;;;;;;25.00;20.50;;;;;9.17;59.48;102923.84;6276355;22;45475;-77
2022/03/18 00:12:18;;;;;;;;;19.50;15.75;;;;;9.14;59.29;102923.94;6273910;22;45771;-77
2022/03/18 00:14:43;;;;;;;;;18.00;15.25;;;;;9.05;59.34;102903.28;6271959;22;46268;-77
2022/03/18 00:17:11;;;;;;;;;17.50;15.25;;;;;9.06;59.36;102915.44;6273691;22;45554;-78
2022/03/18 00:19:39;;;;;;;;;18.50;17.25;;;;;9.10;59.63;102922.31;6272930;22;46477;-78
2022/03/18 00:22:06;;;;;;;;;18.75;15.00;;;;;9.05;59.38;102911.97;6273052;22;46944;-77
2022/03/18 00:24:33;;;;;;;;;17.00;15.50;;;;;9.09;59.62;102924.06;6272534;22;45598;-78
2022/03/18 00:26:59;;;;;;;;;20.75;17.75;;;;;9.08;59.46;102914.50;6270837;22;45574;-78
2022/03/18 00:29:25;;;;;;;;;14.50;14.50;;;;;9.09;59.40;102924.06;6271799;22;47117;-77
2022/03/18 00:31:51;;;;;;;;;19.75;16.50;;;;;9.07;59.55;102920.63;6272450;22;46109;-77
2022/03/18 00:34:16;;;;;;;;;25.00;18.50;;;;;9.10;59.79;102930.16;6272461;22;45923;-76
2022/03/18 00:36:42;;;;;;;;;13.00;10.50;;;;;9.01;59.71;102915.59;6271952;22;45562;-77
2022/03/18 00:39:07;;;;;;;;;20.00;16.25;;;;;9.09;59.69;102929.28;6272317;22;45697;-77
2022/03/18 00:41:33;;;;;;;;;21.25;20.00;;;;;9.06;59.74;102925.91;6272727;22;46199;-78
2022/03/18 00:44:00;;;;;;;;;20.75;18.75;;;;;9.09;59.86;102931.91;6272598;22;45528;-77
2022/03/18 00:46:25;;;;;;;;;21.50;18.50;;;;;9.02;59.72;102916.41;6271483;22;45732;-77
2022/03/18 00:54:20;;;;;;;;;18.25;14.75;;;;;9.06;59.97;102929.38;6271595;22;45487;-77
2022/03/18 00:56:46;;;;;;;;;26.50;20.50;;;;;9.04;59.97;102925.09;6272029;22;45636;-78
2022/03/18 00:59:11;;;;;;;;;20.25;17.25;;;;;8.98;59.92;102914.78;6271858;22;45545;-76
2022/03/18 01:01:37;;;;;;;;;20.00;18.25;;;;;9.04;60.14;102927.69;6271792;22;45642;-77
2022/03/18 01:04:02;;;;;;;;;21.25;19.00;;;;;8.98;59.91;102920.03;6270997;22;45545;-77
2022/03/18 01:06:28;;;;;;;;;20.00;19.75;;;;;8.96;60.12;102922.66;6271108;22;45662;-76
2022/03/18 01:08:54;;;;;;;;;24.50;20.75;;;;;9.02;60.08;102934.72;6271325;22;46187;-76
2022/03/18 01:11:19;;;;;;;;;19.00;18.00;;;;;8.93;60.14;102906.22;6271073;22;46001;-77
2022/03/18 01:13:45;;;;;;;;;23.00;19.25;;;;;9.02;60.32;102926.88;6272118;22;45599;-76
2022/03/18 01:16:10;;;;;;;;;29.00;22.75;;;;;9.01;60.40;102933.88;6272143;22;45561;-77
2022/03/18 01:18:35;;;;;;;;;23.75;20.25;;;;;8.96;60.55;102925.28;6272789;22;46234;-77
2022/03/18 01:21:02;;;;;;;;;25.25;22.75;;;;;8.93;60.80;102921.91;6245348;22;46098;-77
2022/03/18 01:23:28;;;;;;;;;27.75;24.25;;;;;9.00;60.70;102936.53;6273322;22;45788;-77
2022/03/18 01:25:55;;;;;;;;;26.75;24.25;;;;;8.91;60.84;102935.00;6272441;22;45631;-77
2022/03/18 01:28:21;;;;;;;;;25.00;24.00;;;;;8.91;60.96;102932.38;6271255;22;47754;-77
2022/03/18 01:30:47;;;;;;;;;29.50;25.75;;;;;8.91;61.17;102940.22;6271931;22;45817;-77
2022/03/18 01:33:12;;;;;;;;;25.00;21.25;;;;;8.89;61.09;102935.97;6270973;22;45530;-77
2022/03/18 01:35:38;;;;;;;;;27.50;23.25;;;;;8.89;60.94;102939.44;6270927;22;45734;-77
2022/03/18 01:38:03;;;;;;;;;29.50;23.75;;;;;8.79;61.36;102928.38;6271865;22;46136;-76
2022/03/18 01:40:28;;;;;;;;;22.25;19.50;;;;;8.79;61.24;102928.38;6271180;22;46193;-76
2022/03/18 01:42:54;;;;;;;;;24.75;21.00;;;;;8.84;61.25;102939.56;6271112;22;45507;-77
2022/03/18 01:45:21;;;;;;;;;24.75;22.50;;;;;8.79;61.27;102928.38;6271038;22;45514;-77
2022/03/18 01:47:47;;;;;;;;;29.25;25.50;;;;;8.82;61.57;102935.25;6271521;22;45419;-77
2022/03/18 01:50:14;;;;;;;;;25.00;23.75;;;;;8.82;61.31;102938.72;6243616;22;45998;-77
2022/03/18 01:52:41;;;;;;;;;36.75;25.50;;;;;8.81;61.41;102942.25;6271539;22;45629;-77
2022/03/18 01:55:07;;;;;;;;;27.50;24.50;;;;;8.73;61.53;102931.16;6271368;22;45610;-78
2022/03/18 01:57:33;;;;;;;;;26.50;22.00;;;;;8.60;61.46;102918.41;6271853;22;45550;-78
2022/03/18 01:59:58;;;;;;;;;28.25;25.50;;;;;8.51;61.64;102896.00;6244025;22;45602;-78
2022/03/18 02:02:25;;;;;;;;;28.00;24.75;;;;;8.80;61.48;102944.88;6271160;22;45575;-77
2022/03/18 02:04:51;;;;;;;;;28.50;23.50;;;;;8.50;61.44;102894.28;6271409;22;45496;-77
2022/03/18 02:07:17;;;;;;;;;26.25;21.50;;;;;8.73;61.59;102931.16;6271254;22;45786;-78
2022/03/18 02:13:06;;;;;;;;;25.25;21.00;;;;;8.73;61.48;102938.13;6270609;22;45799;-78
2022/03/18 02:15:31;;;;;;;;;28.25;24.25;;;;;8.78;61.74;102941.47;6271343;22;45730;-78
2022/03/18 02:17:56;;;;;;;;;22.75;21.25;;;;;8.79;61.61;102940.59;6271084;22;46572;-77
2022/03/18 02:20:22;;;;;;;;;27.75;24.00;;;;;8.76;61.68;102948.47;6270654;22;45543;-78
2022/03/18 02:22:47;;;;;;;;;30.00;27.00;;;;;8.64;61.78;102923.53;6271597;22;45570;-78
2022/03/18 02:25:13;;;;;;;;;27.00;23.25;;;;;8.53;61.78;102919.50;6271325;22;45426;-78
2022/03/18 02:27:40;;;;;;;;;29.00;25.25;;;;;8.71;61.81;102950.34;6271318;22;45886;-78
2022/03/18 02:30:08;;;;;;;;;26.75;25.25;;;;;8.68;61.73;102951.31;6271430;22;46041;-77
2022/03/18 02:32:34;;;;;;;;;33.75;27.50;;;;;8.59;61.69;102933.22;6271068;22;45586;-77
2022/03/18 02:35:01;;;;;;;;;28.50;25.75;;;;;8.59;61.84;102942.81;6270501;22;45818;-77
2022/03/18 02:37:26;;;;;;;;;30.75;27.00;;;;;8.60;61.90;102939.31;6270792;22;46675;-76
2022/03/18 02:43:14;;;;;;;;;32.75;30.25;;;;;8.56;62.27;102928.09;6271201;22;45727;-76
2022/03/18 02:45:39;;;;;;;;;36.00;28.25;;;;;8.54;62.23;102932.50;6270178;22;45636;-78
2022/03/18 02:48:06;;;;;;;;;34.25;31.50;;;;;8.51;62.24;102937.81;6270811;22;46714;-76
2022/03/18 02:50:31;;;;;;;;;29.25;27.50;;;;;8.49;62.46;102933.50;6271316;22;45992;-78
2022/03/18 02:52:57;;;;;;;;;36.00;30.00;;;;;8.46;62.42;102936.22;6270229;22;45522;-75
2022/03/18 02:55:22;;;;;;;;;36.00;29.25;;;;;8.43;62.42;102931.91;6243492;22;45496;-78
2022/03/18 02:57:47;;;;;;;;;31.00;27.00;;;;;8.33;62.42;102925.19;6271096;22;45594;-77
2022/03/18 03:00:13;;;;;;;;;31.50;27.00;;;;;8.39;62.37;102935.50;6243282;22;47230;-78
2022/03/18 03:02:39;;;;;;;;;36.25;30.50;;;;;8.28;62.67;102916.59;6270569;22;45435;-76
2022/03/18 03:13:56;;;;;;;;;35.25;31.75;;;;;8.29;62.53;102936.59;6270009;22;45681;-78
2022/03/18 03:16:21;;;;;;;;;31.25;28.25;;;;;8.32;62.56;102946.97;6273212;22;45582;-78
2022/03/18 03:18:48;;;;;;;;;34.00;30.00;;;;;8.30;62.47;102949.66;6272152;22;45601;-77
2022/03/18 03:21:14;;;;;;;;;42.50;33.75;;;;;8.29;62.87;102953.13;6272522;22;46146;-77
2022/03/18 03:23:40;;;;;;;;;39.25;34.00;;;;;8.30;62.76;102951.41;6271566;22;45850;-76
2022/03/18 03:26:07;;;;;;;;;41.25;33.25;;;;;8.27;62.94;102957.50;6271413;22;45566;-78
2022/03/18 03:28:32;;;;;;;;;28.50;27.25;;;;;8.25;62.85;102964.53;6243414;22;47397;-77
2022/03/18 03:30:58;;;;;;;;;44.25;36.75;;;;;8.16;62.76;102956.03;6271033;22;46217;-77
2022/03/18 03:33:24;;;;;;;;;37.50;34.25;;;;;8.24;62.82;102973.25;6243164;22;45508;-77
2022/03/18 03:35:50;;;;;;;;;43.25;36.00;;;;;8.19;62.83;102964.69;6270037;22;45558;-78
2022/03/18 03:38:15;;;;;;;;;44.50;34.25;;;;;8.19;62.80;102963.81;6269983;22;46451;-77
2022/03/18 03:40:43;;;;;;;;;50.50;39.00;;;;;8.23;62.98;102968.06;6270315;22;46228;-77
2022/03/18 03:43:09;;;;;;;;;43.00;38.75;;;;;8.20;62.80;102966.41;6271059;22;45455;-78
2022/03/18 03:45:38;;;;;;;;;47.25;40.25;;;;;8.19;63.01;102966.44;6269972;22;45722;-77
2022/03/18 03:48:04;;;;;;;;;47.00;40.25;;;;;8.19;63.07;102962.06;6243151;22;47667;-77
2022/03/18 03:50:30;;;;;;;;;42.00;35.50;;;;;8.17;62.97;102960.38;6271244;22;46342;-78
2022/03/18 03:52:59;;;;;;;;;47.25;38.00;;;;;8.14;63.08;102969.16;6270149;22;45587;-78
2022/03/18 03:55:24;;;;;;;;;36.25;33.00;;;;;8.09;62.98;102968.41;6270105;22;45662;-77
2022/03/18 03:57:50;;;;;;;;;36.00;30.00;;;;;7.98;62.86;102949.50;6270117;22;46261;-77
2022/03/18 04:00:16;;;;;;;;;36.25;32.50;;;;;8.04;62.85;102972.00;6270038;22;46023;-78
2022/03/18 04:02:45;;;;;;;;;38.75;34.00;;;;;8.06;62.82;102984.13;6270030;22;45740;-77
2022/03/18 04:05:11;;;;;;;;;35.00;32.25;;;;;8.03;62.78;102984.19;6243671;22;45601;-77
2022/03/18 04:07:39;;;;;;;;;36.75;30.00;;;;;8.01;62.67;102986.81;6271310;22;45609;-78
2022/03/18 04:10:07;;;;;;;;;27.50;27.00;;;;;7.95;62.62;102978.28;6271991;22;46287;-77
2022/03/18 04:12:33;;;;;;;;;30.25;27.00;;;;;8.01;62.79;102991.19;6270664;22;45777;-76
2022/03/18 04:15:03;;;;;;;;;38.75;33.50;;;;;7.89;62.64;102978.41;6270306;22;45678;-77
2022/03/18 04:17:46;;;;;;;;;28.25;25.00;;;;;7.99;62.51;102999.03;6270510;22;45434;-77
2022/03/18 04:20:17;;;;;;;;;30.75;27.50;;;;;7.93;62.47;102975.72;6266898;22;46100;-77
2022/03/18 04:22:43;;;;;;;;;31.50;30.00;;;;;7.97;62.38;102984.31;6270151;22;45681;-77
2022/03/18 04:25:09;;;;;;;;;29.75;26.75;;;;;7.93;62.58;102977.47;6269726;22;45554;-78
2022/03/18 04:27:35;;;;;;;;;32.25;25.25;;;;;7.90;62.45;102990.56;6271277;22;47582;-78
2022/03/18 04:30:01;;;;;;;;;32.25;26.00;;;;;7.83;62.52;102983.75;6271169;22;46816;-78
2022/03/18 04:32:26;;;;;;;;;30.25;25.75;;;;;7.91;62.51;102998.38;6244194;22;45716;-75
2022/03/18 04:34:51;;;;;;;;;27.25;25.75;;;;;7.89;62.59;103009.72;6271143;22;45734;-77
2022/03/18 04:37:17;;;;;;;;;29.25;26.00;;;;;7.76;62.79;102993.47;6272156;22;45443;-77
2022/03/18 04:39:42;;;;;;;;;41.00;30.00;;;;;7.82;62.67;103010.75;6271737;22;45562;-77
2022/03/18 04:42:09;;;;;;;;;30.00;26.00;;;;;7.85;62.78;103019.38;6243664;22;45531;-77
2022/03/18 04:44:35;;;;;;;;;27.75;24.75;;;;;7.84;62.74;103027.22;6271003;22;45684;-78
2022/03/18 04:47:00;;;;;;;;;29.75;25.25;;;;;7.82;62.66;103027.28;6271300;22;45688;-77
2022/03/18 04:49:26;;;;;;;;;32.25;27.00;;;;;7.78;62.54;103022.13;6245033;22;45881;-77
2022/03/18 04:51:51;;;;;;;;;29.00;24.50;;;;;7.79;62.83;103034.28;6271668;22;45486;-78
2022/03/18 04:54:17;;;;;;;;;25.00;20.75;;;;;7.74;62.70;103026.56;6243406;22;45736;-77
2022/03/18 04:59:26;;;;;;;;;32.50;27.50;;;;;7.74;62.53;103023.09;6271549;22;46083;-76
2022/03/18 05:01:51;;;;;;;;;26.75;23.50;;;;;7.70;62.43;103013.63;6271769;22;45769;-77
2022/03/18 05:04:17;;;;;;;;;27.25;26.00;;;;;7.69;62.18;103025.78;6271756;22;45477;-77
2022/03/18 05:06:42;;;;;;;;;22.00;16.50;;;;;7.71;62.44;103023.16;6271990;22;45714;-77
2022/03/18 05:09:08;;;;;;;;;22.50;19.25;;;;;7.52;62.31;102991.34;6271605;22;45768;-77
2022/03/18 05:11:33;;;;;;;;;20.50;18.75;;;;;7.69;62.34;103022.31;6271892;22;45541;-77
2022/03/18 05:13:59;;;;;;;;;28.25;25.25;;;;;7.65;62.15;103026.75;6271502;22;45730;-79
2022/03/18 05:16:25;;;;;;;;;27.50;26.00;;;;;7.62;62.27;103029.41;6271802;22;45780;-77
2022/03/18 05:18:51;;;;;;;;;22.50;19.50;;;;;7.68;62.38;103050.16;6270785;22;46873;-77
2022/03/18 05:21:16;;;;;;;;;25.00;23.50;;;;;7.67;62.34;103048.44;6269833;22;45885;-77
2022/03/18 05:23:42;;;;;;;;;30.75;28.25;;;;;7.59;62.17;103039.91;6271844;22;45466;-76
2022/03/18 05:29:29;;;;;;;;;25.00;22.50;;;;;7.54;62.15;103039.16;6271729;22;45756;-77
2022/03/18 05:31:55;;;;;;;;;22.00;21.50;;;;;7.64;61.95;103058.09;6271628;22;45949;-76
2022/03/18 05:34:21;;;;;;;;;25.75;22.50;;;;;7.62;61.98;103060.72;6271906;22;45841;-76
2022/03/18 05:36:46;;;;;;;;;21.50;20.75;;;;;7.59;61.96;103061.66;6271158;22;46773;-77
2022/03/18 05:39:12;;;;;;;;;30.00;25.00;;;;;7.57;62.08;103063.41;6273460;22;45529;-78
2022/03/18 05:41:37;;;;;;;;;25.25;22.00;;;;;7.56;61.99;103066.91;6272065;22;45508;-77
2022/03/18 05:44:04;;;;;;;;;27.75;25.50;;;;;7.29;61.88;103032.69;6272465;22;45854;-77
2022/03/18 05:46:29;;;;;;;;;25.75;21.50;;;;;7.53;61.92;103060.91;6272513;22;45554;-76
2022/03/18 05:48:55;;;;;;;;;23.25;21.50;;;;;7.49;61.80;103051.41;6271358;22;46351;-78
2022/03/18 05:51:20;;;;;;;;;24.50;20.75;;;;;7.53;61.84;103077.41;6272458;22;45617;-78
2022/03/18 05:53:46;;;;;;;;;21.75;19.00;;;;;7.45;61.53;103057.59;6271505;22;45425;-76
2022/03/18 05:59:35;;;;;;;;;21.50;19.50;;;;;7.49;61.03;103060.09;6271836;22;45706;-77
2022/03/18 06:02:01;;;;;;;;;27.25;21.25;;;;;7.45;61.12;103053.22;6243861;22;45826;-77
2022/03/18 06:04:28;;;;;;;;;20.00;18.50;;;;;7.47;60.85;103058.41;6270857;22;45487;-78
2022/03/18 06:06:53;;;;;;;;;21.50;20.50;;;;;7.40;60.54;103059.41;6270785;22;47753;-78
2022/03/18 06:12:04;;;;;;;;;22.50;19.75;;;;;7.23;60.68;103044.09;6271484;22;45660;-77
2022/03/18 06:14:31;;;;;;;;;23.25;18.00;;;;;7.43;60.73;103081.09;6271558;22;45533;-78
2022/03/18 06:16:59;;;;;;;;;22.25;21.00;;;;;7.42;60.68;103076.75;6270989;22;46545;-77
2022/03/18 06:19:26;;;;;;;;;22.25;20.50;;;;;7.41;60.56;103088.06;6271701;22;45944;-78
2022/03/18 06:21:52;;;;;;;;;22.75;21.25;;;;;7.39;60.52;103082.03;6271138;22;45769;-78
2022/03/18 06:24:20;;;;;;;;;18.00;18.00;;;;;7.39;60.51;103076.81;6271359;22;45614;-78
2022/03/18 06:30:07;;;;;;;;;25.25;21.25;;;;;7.37;60.70;103081.19;6271367;22;45936;-77
2022/03/18 06:32:33;;;;;;;;;21.50;21.25;;;;;7.38;60.50;103082.91;6271657;22;45724;-76
2022/03/18 06:34:58;;;;;;;;;26.75;25.50;;;;;7.39;60.58;103086.38;6271324;22;45572;-77
2022/03/18 06:37:23;;;;;;;;;22.50;20.75;;;;;7.40;60.63;103088.06;6271789;22;45905;-78
2022/03/18 06:39:49;;;;;;;;;21.25;18.00;;;;;7.40;60.45;103080.25;6271068;22;45925;-77
2022/03/18 06:42:14;;;;;;;;;26.75;22.50;;;;;7.41;60.46;103093.28;6271422;22;45602;-77
2022/03/18 06:44:39;;;;;;;;;21.00;19.25;;;;;7.41;60.36;103095.88;6270918;22;45605;-77
2022/03/18 06:47:05;;;;;;;;;29.25;21.00;;;;;7.40;60.26;103098.50;6271538;22;45619;-77
2022/03/18 06:49:30;;;;;;;;;21.50;17.25;;;;;7.41;60.48;103093.28;6271316;22;45549;-78
2022/03/18 06:51:56;;;;;;;;;25.25;19.75;;;;;7.38;60.63;103092.47;6271355;22;45922;-77
2022/03/18 06:54:21;;;;;;;;;24.50;19.50;;;;;7.40;60.32;103083.72;6270950;22;45616;-77
2022/03/18 07:00:10;;;;;;;;;29.25;26.25;;;;;7.41;60.22;103077.63;6271221;22;46217;-77
2022/03/18 07:02:35;;;;;;;;;24.50;22.00;;;;;7.39;60.31;103074.22;6270736;22;45586;-78
2022/03/18 07:05:01;;;;;;;;;22.75;21.50;;;;;7.40;60.35;103072.44;6271169;22;45546;-76
2022/03/18 07:07:26;;;;;;;;;20.00;17.75;;;;;7.43;60.22;103078.47;6271416;22;45534;-77
2022/03/18 07:09:52;;;;;;;;;26.00;21.25;;;;;7.44;60.09;103090.63;6270962;22;45396;-76
2022/03/18 07:12:17;;;;;;;;;28.50;21.50;;;;;7.46;60.39;103085.38;6270356;22;45556;-78
2022/03/18 07:14:43;;;;;;;;;28.50;25.25;;;;;7.49;60.21;103098.38;6271123;22;45599;-78
2022/03/18 07:19:52;;;;;;;;;24.75;22.50;;;;;7.53;59.73;103089.59;6270698;22;46062;-77
2022/03/18 07:22:19;;;;;;;;;20.00;18.25;;;;;7.54;60.03;103086.97;6270376;22;45710;-76
2022/03/18 07:24:44;;;;;;;;;22.50;21.75;;;;;7.57;59.89;103092.09;6270369;22;45495;-76
2022/03/18 07:30:31;;;;;;;;;25.50;22.25;;;;;7.64;59.75;103098.06;6272493;22;46029;-77
2022/03/18 07:32:57;;;;;;;;;27.75;21.75;;;;;7.68;59.68;103098.88;6269958;22;45571;-77
2022/03/18 07:35:22;;;;;;;;;25.25;25.00;;;;;7.69;59.74;103092.75;6271340;22;45477;-78
2022/03/18 07:37:49;;;;;;;;;20.50;18.00;;;;;7.72;59.39;103101.38;6270685;22;46566;-77
2022/03/18 07:40:17;;;;;;;;;28.75;22.50;;;;;7.75;59.72;103088.28;6271168;22;47308;-78
2022/03/18 07:42:43;;;;;;;;;29.25;24.00;;;;;7.77;59.35;103083.06;6270394;22;45585;-78
2022/03/18 07:45:16;;;;;;;;;22.50;21.00;;;;;7.80;59.37;103094.28;6270967;22;45831;-78
2022/03/18 07:47:41;;;;;;;;;21.25;18.25;;;;;7.77;59.27;103081.31;6270526;22;47390;-77
2022/03/18 07:50:07;;;;;;;;;20.50;19.50;;;;;7.85;59.17;103095.06;6243633;22;45964;-78
2022/03/18 07:52:34;;;;;;;;;22.50;21.50;;;;;7.90;59.08;103089.72;6271541;22;45766;-76
2022/03/18 07:54:59;;;;;;;;;22.25;21.50;;;;;7.93;58.92;103081.88;6272111;22;45758;-77
2022/03/18 08:00:46;;;;;;;;;25.00;22.00;;;;;8.02;58.93;103092.97;6270993;22;46367;-77
2022/03/18 08:03:14;;;;;;;;;23.25;20.00;;;;;7.99;58.63;103086.94;6271630;22;46111;-78
2022/03/18 08:05:40;;;;;;;;;17.50;17.25;;;;;8.11;58.51;103104.97;6271794;22;45591;-78
2022/03/18 08:08:06;;;;;;;;;23.00;21.50;;;;;8.14;58.42;103098.84;6271486;22;47297;-77
2022/03/18 08:10:32;;;;;;;;;25.00;23.25;;;;;8.18;58.02;103101.34;6271104;22;46935;-77
2022/03/18 08:12:57;;;;;;;;;27.50;19.75;;;;;8.09;58.12;103085.88;6272778;22;45511;-77
2022/03/18 08:15:28;;;;;;;;;22.75;21.25;;;;;8.27;58.21;103102.88;6270187;22;45464;-78
2022/03/18 08:17:53;;;;;;;;;22.00;20.50;;;;;8.18;57.62;103075.22;6271747;22;46513;-78
2022/03/18 08:20:21;;;;;;;;;24.25;21.50;;;;;8.37;57.78;103110.53;6271588;22;45690;-77
2022/03/18 08:22:49;;;;;;;;;22.50;18.50;;;;;8.28;57.46;103081.09;6244252;22;45560;-78
2022/03/18 08:25:14;;;;;;;;;21.25;19.50;;;;;8.48;57.43;103106.81;6271262;22;45924;-78
2022/03/18 08:31:02;;;;;;;;;22.50;19.75;;;;;8.54;56.56;103110.16;6271820;22;45647;-75
2022/03/18 08:33:27;;;;;;;;;23.50;21.75;;;;;8.63;56.77;103116.94;6270853;22;46040;-78
2022/03/18 08:35:53;;;;;;;;;27.50;20.50;;;;;8.68;56.69;103131.63;6272381;22;45396;-78
2022/03/18 08:38:18;;;;;;;;;27.75;22.00;;;;;8.73;56.36;103119.31;6272190;22;46265;-78
2022/03/18 08:40:45;;;;;;;;;21.50;19.00;;;;;8.74;55.75;103113.19;6271403;22;45573;-78
2022/03/18 08:43:11;;;;;;;;;29.25;18.00;;;;;8.78;55.76;103112.22;6244251;22;45830;-77
2022/03/18 08:45:36;;;;;;;;;25.50;20.50;;;;;8.78;55.32;103104.38;6271446;22;45658;-76
2022/03/18 08:48:03;;;;;;;;;25.25;19.50;;;;;8.90;55.51;103120.66;6271091;22;45793;-78
2022/03/18 08:50:29;;;;;;;;;23.25;19.50;;;;;8.92;55.10;103111.88;6271508;22;46059;-76
2022/03/18 08:52:56;;;;;;;;;22.75;19.75;;;;;8.97;54.88;103109.16;6272112;22;45714;-77
2022/03/18 08:55:22;;;;;;;;;20.75;17.25;;;;;9.03;55.14;103107.25;6269448;22;45736;-77
2022/03/18 09:01:09;;;;;;;;;20.00;18.50;;;;;9.10;54.67;103102.72;6271540;22;45778;-78
2022/03/18 09:03:35;;;;;;;;;22.75;20.25;;;;;9.12;54.10;103101.78;6271093;22;45559;-77
2022/03/18 09:06:00;;;;;;;;;25.25;20.75;;;;;9.20;54.06;103109.44;6272424;22;45566;-76
2022/03/18 09:08:27;;;;;;;;;21.50;18.00;;;;;9.27;53.53;103111.03;6271979;22;46026;-77
2022/03/18 09:10:52;;;;;;;;;25.00;19.00;;;;;9.20;53.37;103091.16;6271132;22;46844;-76
2022/03/18 09:13:18;;;;;;;;;20.50;18.75;;;;;9.37;53.14;103125.59;6268146;22;45678;-78
2022/03/18 09:15:44;;;;;;;;;17.75;17.00;;;;;9.30;52.92;103099.59;6244705;22;45373;-78
2022/03/18 09:18:10;;;;;;;;;12.50;10.75;;;;;9.45;53.16;103112.28;6270902;22;45916;-75
2022/03/18 09:20:36;;;;;;;;;18.50;17.00;;;;;9.50;52.41;103113.06;6271535;22;45935;-77
2022/03/18 09:23:04;;;;;;;;;18.75;17.00;;;;;9.53;52.45;103113.81;6271382;22;45513;-79
2022/03/18 09:25:29;;;;;;;;;18.25;16.00;;;;;9.57;51.55;103112.81;6271512;22;45622;-78
2022/03/18 09:31:16;;;;;;;;;19.25;16.00;;;;;9.72;51.92;103114.16;6271231;22;46100;-77
2022/03/18 09:33:43;;;;;;;;;21.75;19.25;;;;;9.74;51.64;103111.50;6271181;22;45544;-77
2022/03/18 09:36:10;;;;;;;;;17.75;17.50;;;;;9.78;51.44;103114.00;6271431;22;45562;-77
2022/03/18 09:38:36;;;;;;;;;16.75;16.00;;;;;9.88;51.22;103118.06;6271558;22;45663;-76
2022/03/18 09:41:06;;;;;;;;;15.00;13.00;;;;;9.92;50.38;103097.94;6271817;22;45917;-78
2022/03/18 09:43:33;;;;;;;;;17.25;16.25;;;;;10.00;49.16;103114.25;6270440;22;45542;-76
2022/03/18 09:45:59;;;;;;;;;16.00;13.50;;;;;10.01;49.73;103110.75;6271158;22;45526;-78
2022/03/18 09:48:26;;;;;;;;;18.00;15.00;;;;;10.11;49.78;103120.06;6270655;22;47558;-77
2022/03/18 09:50:52;;;;;;;;;14.00;13.00;;;;;10.06;49.32;103083.53;6271506;22;46432;-77
2022/03/18 09:53:18;;;;;;;;;14.50;13.00;;;;;10.26;48.15;103113.53;6270459;22;46090;-76
2022/03/18 09:55:43;;;;;;;;;16.00;11.50;;;;;10.31;48.32;103120.34;6271915;22;45389;-77
2022/03/18 10:01:31;;;;;;;;;13.25;13.25;;;;;10.44;47.47;103108.63;6271202;22;45777;-77
2022/03/18 10:04:02;;;;;;;;;15.00;12.75;;;;;10.52;46.33;103108.41;6270243;22;45696;-77
2022/03/18 10:06:28;;;;;;;;;16.00;13.25;;;;;10.56;46.12;103112.63;6271440;22;46059;-76
2022/03/18 10:08:55;;;;;;;;;15.00;12.25;;;;;10.64;45.90;103112.38;6271856;22;47436;-78
2022/03/18 10:11:23;;;;;;;;;15.00;14.00;;;;;10.67;46.46;103112.28;6272842;22;46491;-77
2022/03/18 10:14:02;;;;;;;;;15.50;12.50;;;;;10.71;45.23;103111.28;6271616;22;45823;-76
2022/03/18 10:16:39;;;;;;;;;12.75;12.75;;;;;10.80;45.70;103113.59;6273583;22;45516;-78
2022/03/18 10:19:18;;;;;;;;;15.75;13.00;;;;;10.88;45.42;103117.72;6273124;22;45649;-77
2022/03/18 10:21:56;;;;;;;;;17.50;14.50;;;;;10.92;44.66;103113.22;6271079;22;46029;-77
2022/03/18 10:24:30;;;;;;;;;6.25;4.00;;;;;10.98;44.61;103118.28;6270325;22;45570;-76
2022/03/18 10:27:12;;;;;;;;;14.25;13.25;;;;;11.02;44.98;103105.91;6271110;22;45440;-76
2022/03/18 10:29:48;;;;;;;;;13.50;13.00;;;;;11.08;44.79;103111.81;6243858;22;47382;-77
2022/03/18 10:32:15;;;;;;;;;13.25;13.25;;;;;11.05;43.08;103101.44;6271541;22;46032;-76
2022/03/18 10:37:42;;;;;;;;;9.75;9.75;;;;;11.22;43.19;103099.13;6271649;22;45467;-77
2022/03/18 10:40:09;;;;;;;;;10.25;10.25;;;;;11.23;42.95;103090.31;6271764;22;45603;-78
2022/03/18 10:42:34;;;;;;;;;13.75;11.75;;;;;11.30;43.34;103086.56;6243733;22;47265;-76
2022/03/18 10:45:02;;;;;;;;;13.75;12.00;;;;;11.36;43.75;103083.75;6270306;22;45747;-77
2022/03/18 10:47:36;;;;;;;;;12.00;12.00;;;;;11.46;43.32;103094.78;6271903;22;45625;-76
2022/03/18 10:50:16;;;;;;;;;12.75;9.50;;;;;11.52;43.36;103094.56;6270857;22;46515;-77
2022/03/18 10:52:47;;;;;;;;;12.50;9.75;;;;;11.59;42.78;103089.97;6270605;22;46012;-77
2022/03/18 10:55:24;;;;;;;;;8.50;7.75;;;;;11.60;41.43;103083.81;6270471;22;45547;-76
2022/03/18 10:58:10;;;;;;;;;8.25;8.00;;;;;11.70;41.38;103090.44;6271095;22;45579;-78
2022/03/18 11:00:38;;;;;;;;;7.50;7.50;;;;;11.75;41.67;103089.38;6271629;22;45742;-77
2022/03/18 11:03:04;;;;;;;;;9.75;9.00;;;;;11.79;40.84;103084.88;6271371;22;46133;-77
2022/03/18 11:05:36;;;;;;;;;10.00;9.75;;;;;11.88;41.11;103078.41;6270357;22;45631;-77
2022/03/18 11:08:05;;;;;;;;;10.00;9.00;;;;;11.94;40.63;103088.69;6270913;22;45875;-76
2022/03/18 11:13:20;;;;;;;;;14.00;10.25;;;;;11.98;39.23;103075.41;6270271;22;46122;-77
2022/03/18 11:15:45;;;;;;;;;12.25;10.50;;;;;12.08;39.68;103075.91;6270559;22;45553;-76
2022/03/18 11:18:14;;;;;;;;;14.25;11.25;;;;;12.12;38.80;103072.25;6271318;22;45660;-77
2022/03/18 11:20:43;;;;;;;;;10.50;10.50;;;;;12.15;39.29;103080.88;6270399;22;45760;-76
2022/03/18 11:23:16;;;;;;;;;12.25;10.50;;;;;12.19;40.13;103073.75;6269410;22;46146;-77
2022/03/18 11:25:45;;;;;;;;;9.75;9.00;;;;;12.26;40.04;103069.09;6243929;22;45630;-78
2022/03/18 11:28:15;;;;;;;;;13.00;11.00;;;;;12.20;39.44;103057.03;6271320;22;45649;-77
2022/03/18 11:30:41;;;;;;;;;11.25;9.00;;;;;12.34;39.40;103062.63;6271126;22;46233;-75
2022/03/18 11:33:10;;;;;;;;;10.75;9.75;;;;;12.37;36.89;103073.00;6269911;22;47106;-75
2022/03/18 11:35:55;;;;;;;;;9.75;7.50;;;;;12.40;36.14;103062.41;6270081;22;45592;-75
2022/03/18 11:38:26;;;;;;;;;10.00;7.75;;;;;12.43;36.16;103064.88;6254158;22;45866;-76
2022/03/18 11:41:03;;;;;;;;;8.50;5.00;;;;;12.47;35.77;103077.00;6271312;22;45751;-76
2022/03/18 11:43:42;;;;;;;;;10.00;9.00;;;;;12.52;36.62;103075.03;6270623;22;45969;-76
2022/03/18 11:46:16;;;;;;;;;7.25;7.25;;;;;12.57;35.80;103069.63;6271451;22;45803;-76
2022/03/18 11:48:43;;;;;;;;;6.75;5.00;;;;;12.58;34.40;103071.31;6270997;22;45785;-75
2022/03/18 11:51:31;;;;;;;;;4.00;4.00;;;;;12.63;34.19;103071.16;6271319;22;45494;-77
2022/03/18 11:54:01;;;;;;;;;9.50;7.00;;;;;12.64;34.24;103071.06;6269009;22;47310;-76
2022/03/18 11:59:50;;;;;;;;;6.25;6.25;;;;;12.76;35.17;103052.16;6271538;22;45881;-77
2022/03/18 12:02:15;;;;;;;;;8.00;7.75;;;;;12.77;35.00;103045.13;6271518;22;45515;-76
2022/03/18 12:04:52;;;;;;;;;8.25;8.25;;;;;12.87;34.68;103051.72;6243318;22;46620;-76
2022/03/18 12:07:28;;;;;;;;;7.50;7.50;;;;;12.91;32.14;103050.66;6270791;22;45658;-75
2022/03/18 12:10:06;;;;;;;;;7.50;7.00;;;;;12.92;31.25;103036.59;6272218;22;45610;-76
2022/03/18 12:15:57;;;;;;;;;10.25;9.00;;;;;12.99;33.00;103031.03;6273668;22;45934;-76
2022/03/18 12:18:30;;;;;;;;;10.00;9.00;;;;;13.06;33.99;103036.88;6258220;22;45694;-76
2022/03/18 12:20:55;;;;;;;;;9.50;8.50;;;;;13.12;33.29;103025.28;6253304;22;45147;-77
2022/03/18 12:23:21;;;;;;;;;8.50;8.50;;;;;13.15;33.71;103031.25;6221369;22;47194;-76
2022/03/18 12:25:46;;;;;;;;;8.75;8.00;;;;;13.19;34.52;103022.28;6252519;22;45879;-77
2022/03/18 12:31:34;;;;;;;;;9.50;9.00;;;;;13.28;34.71;102995.56;6261896;22;45261;-78
2022/03/18 12:34:01;;;;;;;;;10.00;8.75;;;;;13.33;33.54;103005.91;6252670;22;45924;-76
2022/03/18 12:36:30;;;;;;;;;12.00;9.00;;;;;13.41;33.96;103004.63;6253187;22;46038;-76
2022/03/18 12:39:13;;;;;;;;;9.00;8.25;;;;;13.48;31.94;103005.22;6252088;22;45670;-76